sensor_id;sensor_type;location;lat;lon;timestamp;temperature;humidity
37158;DHT22;23050;51.776;22.638;2024-03-02T00:01:58;6.40;99.90
37158;DHT22;23050;51.776;22.638;2024-03-02T00:04:24;6.40;99.90
37158;DHT22;23050;51.776;22.638;2024-03-02T00:06:52;6.40;99.90
37158;DHT22;23050;51.776;22.638;2024-03-02T00:09:20;6.40;99.90
37158;DHT22;23050;51.776;22.638;2024-03-02T00:11:45;6.40;99.90
37158;DHT22;23050;51.776;22.638;2024-03-02T00:14:12;6.40;99.90
37158;DHT22;23050;51.776;22.638;2024-03-02T00:16:37;6.30;99.90
37158;DHT22;23050;51.776;22.638;2024-03-02T00:19:05;6.30;99.90
37158;DHT22;23050;51.776;22.638;2024-03-02T00:21:31;6.30;99.90
37158;DHT22;23050;51.776;22.638;2024-03-02T00:23:57;6.30;99.90
37158;DHT22;23050;51.776;22.638;2024-03-02T00:26:23;6.30;99.90
37158;DHT22;23050;51.776;22.638;2024-03-02T00:28:49;6.40;99.90
37158;DHT22;23050;51.776;22.638;2024-03-02T00:31:16;6.30;99.90
37158;DHT22;23050;51.776;22.638;2024-03-02T00:33:46;6.30;99.90
37158;DHT22;23050;51.776;22.638;2024-03-02T00:36:16;6.30;99.90
37158;DHT22;23050;51.776;22.638;2024-03-02T00:38:53;6.30;99.90
37158;DHT22;23050;51.776;22.638;2024-03-02T00:41:31;6.40;99.90
37158;DHT22;23050;51.776;22.638;2024-03-02T00:44:01;6.30;99.90
37158;DHT22;23050;51.776;22.638;2024-03-02T00:46:32;6.30;99.90
37158;DHT22;23050;51.776;22.638;2024-03-02T00:49:00;6.30;99.90
37158;DHT22;23050;51.776;22.638;2024-03-02T00:51:28;6.30;99.90
37158;DHT22;23050;51.776;22.638;2024-03-02T00:53:58;6.30;99.90
37158;DHT22;23050;51.776;22.638;2024-03-02T00:56:24;6.30;99.90
37158;DHT22;23050;51.776;22.638;2024-03-02T00:58:50;6.30;99.90
37158;DHT22;23050;51.776;22.638;2024-03-02T01:01:16;6.30;99.90
37158;DHT22;23050;51.776;22.638;2024-03-02T01:03:42;6.30;99.90
37158;DHT22;23050;51.776;22.638;2024-03-02T01:06:08;6.30;99.90
37158;DHT22;23050;51.776;22.638;2024-03-02T01:08:35;6.30;99.90
37158;DHT22;23050;51.776;22.638;2024-03-02T01:11:01;6.30;99.90
37158;DHT22;23050;51.776;22.638;2024-03-02T01:13:27;6.20;99.90
37158;DHT22;23050;51.776;22.638;2024-03-02T01:15:53;6.20;99.90
37158;DHT22;23050;51.776;22.638;2024-03-02T01:18:18;6.20;99.90
37158;DHT22;23050;51.776;22.638;2024-03-02T01:20:44;6.20;99.90
37158;DHT22;23050;51.776;22.638;2024-03-02T01:23:10;6.20;99.90
37158;DHT22;23050;51.776;22.638;2024-03-02T01:25:35;6.20;99.90
37158;DHT22;23050;51.776;22.638;2024-03-02T01:28:01;6.20;99.90
37158;DHT22;23050;51.776;22.638;2024-03-02T01:30:27;6.20;99.90
37158;DHT22;23050;51.776;22.638;2024-03-02T01:32:52;6.20;99.90
37158;DHT22;23050;51.776;22.638;2024-03-02T01:35:18;6.20;99.90
37158;DHT22;23050;51.776;22.638;2024-03-02T01:37:44;6.20;99.90
37158;DHT22;23050;51.776;22.638;2024-03-02T01:40:11;6.10;99.90
37158;DHT22;23050;51.776;22.638;2024-03-02T01:42:38;6.10;99.90
37158;DHT22;23050;51.776;22.638;2024-03-02T01:45:07;6.10;99.90
37158;DHT22;23050;51.776;22.638;2024-03-02T01:47:34;6.10;99.90
37158;DHT22;23050;51.776;22.638;2024-03-02T01:50:00;6.20;99.90
37158;DHT22;23050;51.776;22.638;2024-03-02T01:52:26;6.10;99.90
37158;DHT22;23050;51.776;22.638;2024-03-02T01:54:52;6.10;99.90
37158;DHT22;23050;51.776;22.638;2024-03-02T01:57:18;6.10;99.90
37158;DHT22;23050;51.776;22.638;2024-03-02T01:59:45;6.10;99.90
37158;DHT22;23050;51.776;22.638;2024-03-02T02:02:11;6.00;99.90
37158;DHT22;23050;51.776;22.638;2024-03-02T02:04:37;6.00;99.90
37158;DHT22;23050;51.776;22.638;2024-03-02T02:07:03;6.00;99.90
37158;DHT22;23050;51.776;22.638;2024-03-02T02:09:28;6.00;99.90
37158;DHT22;23050;51.776;22.638;2024-03-02T02:11:54;6.00;99.90
37158;DHT22;23050;51.776;22.638;2024-03-02T02:14:20;6.10;99.90
37158;DHT22;23050;51.776;22.638;2024-03-02T02:16:45;6.00;99.90
37158;DHT22;23050;51.776;22.638;2024-03-02T02:19:11;6.00;99.90
37158;DHT22;23050;51.776;22.638;2024-03-02T02:21:37;6.00;99.90
37158;DHT22;23050;51.776;22.638;2024-03-02T02:24:03;6.00;99.90
37158;DHT22;23050;51.776;22.638;2024-03-02T02:26:29;6.00;99.90
37158;DHT22;23050;51.776;22.638;2024-03-02T02:28:55;6.00;99.90
37158;DHT22;23050;51.776;22.638;2024-03-02T02:31:21;6.00;99.90
37158;DHT22;23050;51.776;22.638;2024-03-02T02:33:46;6.00;99.90
37158;DHT22;23050;51.776;22.638;2024-03-02T02:36:12;6.00;99.90
37158;DHT22;23050;51.776;22.638;2024-03-02T02:38:40;6.00;99.90
37158;DHT22;23050;51.776;22.638;2024-03-02T02:41:08;6.00;99.90
37158;DHT22;23050;51.776;22.638;2024-03-02T02:43:34;6.00;99.90
37158;DHT22;23050;51.776;22.638;2024-03-02T02:45:59;6.00;99.90
37158;DHT22;23050;51.776;22.638;2024-03-02T02:48:25;6.00;99.90
37158;DHT22;23050;51.776;22.638;2024-03-02T02:50:51;6.00;99.90
37158;DHT22;23050;51.776;22.638;2024-03-02T02:53:16;6.00;99.90
37158;DHT22;23050;51.776;22.638;2024-03-02T02:55:42;6.00;99.90
37158;DHT22;23050;51.776;22.638;2024-03-02T02:58:09;6.00;99.90
37158;DHT22;23050;51.776;22.638;2024-03-02T03:00:35;6.00;99.90
37158;DHT22;23050;51.776;22.638;2024-03-02T03:03:02;6.00;99.90
37158;DHT22;23050;51.776;22.638;2024-03-02T03:05:27;6.00;99.90
37158;DHT22;23050;51.776;22.638;2024-03-02T03:07:53;6.00;99.90
37158;DHT22;23050;51.776;22.638;2024-03-02T03:10:19;5.90;99.90
37158;DHT22;23050;51.776;22.638;2024-03-02T03:12:47;5.90;99.90
37158;DHT22;23050;51.776;22.638;2024-03-02T03:15:13;5.90;99.90
37158;DHT22;23050;51.776;22.638;2024-03-02T03:17:39;5.90;99.90
37158;DHT22;23050;51.776;22.638;2024-03-02T03:20:06;5.90;99.90
37158;DHT22;23050;51.776;22.638;2024-03-02T03:22:35;6.00;99.90
37158;DHT22;23050;51.776;22.638;2024-03-02T03:25:01;6.00;99.90
37158;DHT22;23050;51.776;22.638;2024-03-02T03:27:27;6.00;99.90
37158;DHT22;23050;51.776;22.638;2024-03-02T03:29:53;5.90;99.90
37158;DHT22;23050;51.776;22.638;2024-03-02T03:32:19;6.00;99.90
37158;DHT22;23050;51.776;22.638;2024-03-02T03:34:45;5.90;99.90
37158;DHT22;23050;51.776;22.638;2024-03-02T03:37:11;6.00;99.90
37158;DHT22;23050;51.776;22.638;2024-03-02T03:39:36;5.90;99.90
37158;DHT22;23050;51.776;22.638;2024-03-02T03:42:02;6.00;99.90
37158;DHT22;23050;51.776;22.638;2024-03-02T03:44:28;5.90;99.90
37158;DHT22;23050;51.776;22.638;2024-03-02T03:46:53;5.90;99.90
37158;DHT22;23050;51.776;22.638;2024-03-02T03:49:19;5.90;99.90
37158;DHT22;23050;51.776;22.638;2024-03-02T03:51:45;5.90;99.90
37158;DHT22;23050;51.776;22.638;2024-03-02T03:54:10;5.90;99.90
37158;DHT22;23050;51.776;22.638;2024-03-02T03:56:37;5.90;99.90
37158;DHT22;23050;51.776;22.638;2024-03-02T03:59:02;6.00;99.90
37158;DHT22;23050;51.776;22.638;2024-03-02T04:01:28;5.90;99.90
37158;DHT22;23050;51.776;22.638;2024-03-02T04:03:54;5.90;99.90
37158;DHT22;23050;51.776;22.638;2024-03-02T04:06:20;5.90;99.90
37158;DHT22;23050;51.776;22.638;2024-03-02T04:08:46;6.00;99.90
37158;DHT22;23050;51.776;22.638;2024-03-02T04:11:11;6.00;99.90
37158;DHT22;23050;51.776;22.638;2024-03-02T04:13:37;5.90;99.90
37158;DHT22;23050;51.776;22.638;2024-03-02T04:16:03;5.90;99.90
37158;DHT22;23050;51.776;22.638;2024-03-02T04:18:30;6.00;99.90
37158;DHT22;23050;51.776;22.638;2024-03-02T04:20:57;5.90;99.90
37158;DHT22;23050;51.776;22.638;2024-03-02T04:23:25;5.90;99.90
37158;DHT22;23050;51.776;22.638;2024-03-02T04:25:50;5.90;99.90
37158;DHT22;23050;51.776;22.638;2024-03-02T04:28:16;5.90;99.90
37158;DHT22;23050;51.776;22.638;2024-03-02T04:30:42;5.90;99.90
37158;DHT22;23050;51.776;22.638;2024-03-02T04:33:07;5.90;99.90
37158;DHT22;23050;51.776;22.638;2024-03-02T04:35:38;5.90;99.90
37158;DHT22;23050;51.776;22.638;2024-03-02T04:38:04;5.90;99.90
37158;DHT22;23050;51.776;22.638;2024-03-02T04:40:29;5.90;99.90
37158;DHT22;23050;51.776;22.638;2024-03-02T04:42:55;5.90;99.90
37158;DHT22;23050;51.776;22.638;2024-03-02T04:45:21;5.90;99.90
37158;DHT22;23050;51.776;22.638;2024-03-02T04:47:46;5.90;99.90
37158;DHT22;23050;51.776;22.638;2024-03-02T04:50:12;5.90;99.90
37158;DHT22;23050;51.776;22.638;2024-03-02T04:52:38;5.90;99.90
37158;DHT22;23050;51.776;22.638;2024-03-02T04:55:04;5.90;99.90
37158;DHT22;23050;51.776;22.638;2024-03-02T04:57:43;5.90;99.90
37158;DHT22;23050;51.776;22.638;2024-03-02T05:00:09;5.90;99.90
37158;DHT22;23050;51.776;22.638;2024-03-02T05:02:35;5.90;99.90
37158;DHT22;23050;51.776;22.638;2024-03-02T05:05:01;5.90;99.90
37158;DHT22;23050;51.776;22.638;2024-03-02T05:07:28;5.90;99.90
37158;DHT22;23050;51.776;22.638;2024-03-02T05:09:53;5.90;99.90
37158;DHT22;23050;51.776;22.638;2024-03-02T05:12:19;5.90;99.90
37158;DHT22;23050;51.776;22.638;2024-03-02T05:15:20;5.90;99.90
37158;DHT22;23050;51.776;22.638;2024-03-02T05:17:47;5.90;99.90
37158;DHT22;23050;51.776;22.638;2024-03-02T05:20:12;5.90;99.90
37158;DHT22;23050;51.776;22.638;2024-03-02T05:22:38;5.90;99.90
37158;DHT22;23050;51.776;22.638;2024-03-02T05:25:05;6.00;99.90
37158;DHT22;23050;51.776;22.638;2024-03-02T05:27:31;6.00;99.90
37158;DHT22;23050;51.776;22.638;2024-03-02T05:29:58;6.00;99.90
37158;DHT22;23050;51.776;22.638;2024-03-02T05:32:24;6.00;99.90
37158;DHT22;23050;51.776;22.638;2024-03-02T05:34:49;6.00;99.90
37158;DHT22;23050;51.776;22.638;2024-03-02T05:37:16;6.00;99.90
37158;DHT22;23050;51.776;22.638;2024-03-02T05:39:42;6.00;99.90
37158;DHT22;23050;51.776;22.638;2024-03-02T05:42:09;6.00;99.90
37158;DHT22;23050;51.776;22.638;2024-03-02T05:44:37;6.00;99.90
37158;DHT22;23050;51.776;22.638;2024-03-02T05:47:03;6.00;99.90
37158;DHT22;23050;51.776;22.638;2024-03-02T05:49:29;6.10;99.90
37158;DHT22;23050;51.776;22.638;2024-03-02T05:51:55;6.10;99.90
37158;DHT22;23050;51.776;22.638;2024-03-02T05:54:21;6.10;99.90
37158;DHT22;23050;51.776;22.638;2024-03-02T05:56:46;6.10;99.90
37158;DHT22;23050;51.776;22.638;2024-03-02T05:59:12;6.10;99.90
37158;DHT22;23050;51.776;22.638;2024-03-02T06:01:47;6.10;99.90
37158;DHT22;23050;51.776;22.638;2024-03-02T06:04:14;6.20;99.90
37158;DHT22;23050;51.776;22.638;2024-03-02T06:06:40;6.10;99.90
37158;DHT22;23050;51.776;22.638;2024-03-02T06:09:06;6.20;99.90
37158;DHT22;23050;51.776;22.638;2024-03-02T06:11:39;6.20;99.90
37158;DHT22;23050;51.776;22.638;2024-03-02T06:14:05;6.20;99.90
37158;DHT22;23050;51.776;22.638;2024-03-02T06:16:31;6.20;99.90
37158;DHT22;23050;51.776;22.638;2024-03-02T06:18:57;6.20;99.90
37158;DHT22;23050;51.776;22.638;2024-03-02T06:21:27;6.30;99.90
37158;DHT22;23050;51.776;22.638;2024-03-02T06:23:53;6.30;99.90
37158;DHT22;23050;51.776;22.638;2024-03-02T06:26:19;6.30;99.90
37158;DHT22;23050;51.776;22.638;2024-03-02T06:28:45;6.30;99.90
37158;DHT22;23050;51.776;22.638;2024-03-02T06:31:11;6.30;99.90
37158;DHT22;23050;51.776;22.638;2024-03-02T06:33:37;6.30;99.90
37158;DHT22;23050;51.776;22.638;2024-03-02T06:36:03;6.40;99.90
37158;DHT22;23050;51.776;22.638;2024-03-02T06:38:29;6.40;99.90
37158;DHT22;23050;51.776;22.638;2024-03-02T06:40:54;6.40;99.90
37158;DHT22;23050;51.776;22.638;2024-03-02T06:43:23;6.40;99.90
37158;DHT22;23050;51.776;22.638;2024-03-02T06:45:52;6.40;99.90
37158;DHT22;23050;51.776;22.638;2024-03-02T06:48:18;6.40;99.90
37158;DHT22;23050;51.776;22.638;2024-03-02T06:50:46;6.40;99.90
37158;DHT22;23050;51.776;22.638;2024-03-02T06:53:13;6.40;99.90
37158;DHT22;23050;51.776;22.638;2024-03-02T06:55:38;6.40;99.90
37158;DHT22;23050;51.776;22.638;2024-03-02T06:58:04;6.40;99.90
37158;DHT22;23050;51.776;22.638;2024-03-02T07:00:30;6.40;99.90
37158;DHT22;23050;51.776;22.638;2024-03-02T07:02:56;6.40;99.90
37158;DHT22;23050;51.776;22.638;2024-03-02T07:05:21;6.40;99.90
37158;DHT22;23050;51.776;22.638;2024-03-02T07:07:47;6.40;99.90
37158;DHT22;23050;51.776;22.638;2024-03-02T07:10:12;6.40;99.90
37158;DHT22;23050;51.776;22.638;2024-03-02T07:12:38;6.40;99.90
37158;DHT22;23050;51.776;22.638;2024-03-02T07:15:04;6.40;99.90
37158;DHT22;23050;51.776;22.638;2024-03-02T07:17:31;6.40;99.90
37158;DHT22;23050;51.776;22.638;2024-03-02T07:19:57;6.40;99.90
37158;DHT22;23050;51.776;22.638;2024-03-02T07:22:23;6.40;99.90
37158;DHT22;23050;51.776;22.638;2024-03-02T07:24:49;6.40;99.90
37158;DHT22;23050;51.776;22.638;2024-03-02T07:27:16;6.40;99.90
37158;DHT22;23050;51.776;22.638;2024-03-02T07:29:42;6.40;99.90
37158;DHT22;23050;51.776;22.638;2024-03-02T07:32:09;6.40;99.90
37158;DHT22;23050;51.776;22.638;2024-03-02T07:34:35;6.50;99.90
37158;DHT22;23050;51.776;22.638;2024-03-02T07:37:01;6.40;99.90
37158;DHT22;23050;51.776;22.638;2024-03-02T07:39:28;6.50;99.90
37158;DHT22;23050;51.776;22.638;2024-03-02T07:41:55;6.50;99.90
37158;DHT22;23050;51.776;22.638;2024-03-02T07:44:21;6.50;99.90
37158;DHT22;23050;51.776;22.638;2024-03-02T07:46:47;6.50;99.90
37158;DHT22;23050;51.776;22.638;2024-03-02T07:49:15;6.60;99.90
37158;DHT22;23050;51.776;22.638;2024-03-02T07:51:41;6.60;99.90
37158;DHT22;23050;51.776;22.638;2024-03-02T07:54:07;6.50;99.90
37158;DHT22;23050;51.776;22.638;2024-03-02T07:56:33;6.60;99.90
37158;DHT22;23050;51.776;22.638;2024-03-02T07:58:58;6.70;99.90
37158;DHT22;23050;51.776;22.638;2024-03-02T08:01:31;6.70;99.90
37158;DHT22;23050;51.776;22.638;2024-03-02T08:03:59;6.70;99.90
37158;DHT22;23050;51.776;22.638;2024-03-02T08:06:28;6.70;99.90
37158;DHT22;23050;51.776;22.638;2024-03-02T08:08:55;6.70;99.90
37158;DHT22;23050;51.776;22.638;2024-03-02T08:11:21;6.80;99.90
37158;DHT22;23050;51.776;22.638;2024-03-02T08:13:47;6.80;99.90
37158;DHT22;23050;51.776;22.638;2024-03-02T08:16:13;6.90;99.90
37158;DHT22;23050;51.776;22.638;2024-03-02T08:18:39;6.90;99.90
37158;DHT22;23050;51.776;22.638;2024-03-02T08:21:04;6.90;99.90
37158;DHT22;23050;51.776;22.638;2024-03-02T08:23:30;7.00;99.90
37158;DHT22;23050;51.776;22.638;2024-03-02T08:25:57;7.00;99.90
37158;DHT22;23050;51.776;22.638;2024-03-02T08:28:23;7.00;99.90
37158;DHT22;23050;51.776;22.638;2024-03-02T08:30:48;6.90;99.90
37158;DHT22;23050;51.776;22.638;2024-03-02T08:33:14;7.00;99.90
37158;DHT22;23050;51.776;22.638;2024-03-02T08:35:39;7.00;99.90
37158;DHT22;23050;51.776;22.638;2024-03-02T08:38:05;7.00;99.90
37158;DHT22;23050;51.776;22.638;2024-03-02T08:40:31;7.00;99.90
37158;DHT22;23050;51.776;22.638;2024-03-02T08:42:57;7.00;99.90
37158;DHT22;23050;51.776;22.638;2024-03-02T08:45:22;7.10;99.90
37158;DHT22;23050;51.776;22.638;2024-03-02T08:47:48;7.10;99.90
37158;DHT22;23050;51.776;22.638;2024-03-02T08:50:14;7.20;99.90
37158;DHT22;23050;51.776;22.638;2024-03-02T08:52:39;7.20;99.90
37158;DHT22;23050;51.776;22.638;2024-03-02T08:55:06;7.20;99.90
37158;DHT22;23050;51.776;22.638;2024-03-02T08:57:32;7.20;99.90
37158;DHT22;23050;51.776;22.638;2024-03-02T08:59:58;7.20;99.90
37158;DHT22;23050;51.776;22.638;2024-03-02T09:02:24;7.20;99.90
37158;DHT22;23050;51.776;22.638;2024-03-02T09:04:50;7.20;99.90
37158;DHT22;23050;51.776;22.638;2024-03-02T09:07:16;7.20;99.90
37158;DHT22;23050;51.776;22.638;2024-03-02T09:09:41;7.30;99.90
37158;DHT22;23050;51.776;22.638;2024-03-02T09:12:07;7.40;99.90
37158;DHT22;23050;51.776;22.638;2024-03-02T09:14:33;7.20;99.90
37158;DHT22;23050;51.776;22.638;2024-03-02T09:17:00;7.20;99.90
37158;DHT22;23050;51.776;22.638;2024-03-02T09:19:26;7.30;99.90
37158;DHT22;23050;51.776;22.638;2024-03-02T09:21:51;7.40;99.90
37158;DHT22;23050;51.776;22.638;2024-03-02T09:24:17;7.40;99.90
37158;DHT22;23050;51.776;22.638;2024-03-02T09:26:42;7.40;99.90
37158;DHT22;23050;51.776;22.638;2024-03-02T09:29:08;7.50;99.90
37158;DHT22;23050;51.776;22.638;2024-03-02T09:31:43;7.60;99.90
37158;DHT22;23050;51.776;22.638;2024-03-02T09:34:08;7.60;99.90
37158;DHT22;23050;51.776;22.638;2024-03-02T09:36:34;7.50;99.90
37158;DHT22;23050;51.776;22.638;2024-03-02T09:39:00;7.50;99.90
37158;DHT22;23050;51.776;22.638;2024-03-02T09:41:25;7.50;99.90
37158;DHT22;23050;51.776;22.638;2024-03-02T09:43:51;7.50;99.90
37158;DHT22;23050;51.776;22.638;2024-03-02T09:46:17;7.50;99.90
37158;DHT22;23050;51.776;22.638;2024-03-02T09:48:46;7.30;99.90
37158;DHT22;23050;51.776;22.638;2024-03-02T09:51:12;7.50;99.90
37158;DHT22;23050;51.776;22.638;2024-03-02T09:53:38;7.60;99.90
37158;DHT22;23050;51.776;22.638;2024-03-02T09:56:04;7.70;99.90
37158;DHT22;23050;51.776;22.638;2024-03-02T09:58:30;7.70;99.90
37158;DHT22;23050;51.776;22.638;2024-03-02T10:00:56;7.70;99.90
37158;DHT22;23050;51.776;22.638;2024-03-02T10:03:23;7.70;99.90
37158;DHT22;23050;51.776;22.638;2024-03-02T10:05:52;7.60;99.90
37158;DHT22;23050;51.776;22.638;2024-03-02T10:08:17;7.70;99.90
37158;DHT22;23050;51.776;22.638;2024-03-02T10:10:43;7.70;99.90
37158;DHT22;23050;51.776;22.638;2024-03-02T10:13:10;7.70;99.90
37158;DHT22;23050;51.776;22.638;2024-03-02T10:15:37;7.80;99.90
37158;DHT22;23050;51.776;22.638;2024-03-02T10:18:13;8.00;99.90
37158;DHT22;23050;51.776;22.638;2024-03-02T10:20:40;8.00;99.90
37158;DHT22;23050;51.776;22.638;2024-03-02T10:23:15;8.10;99.90
37158;DHT22;23050;51.776;22.638;2024-03-02T10:25:43;8.20;99.90
37158;DHT22;23050;51.776;22.638;2024-03-02T10:28:09;8.30;99.90
37158;DHT22;23050;51.776;22.638;2024-03-02T10:30:35;8.30;99.90
37158;DHT22;23050;51.776;22.638;2024-03-02T10:33:02;8.40;99.90
37158;DHT22;23050;51.776;22.638;2024-03-02T10:35:28;8.30;99.90
37158;DHT22;23050;51.776;22.638;2024-03-02T10:37:54;8.40;99.90
37158;DHT22;23050;51.776;22.638;2024-03-02T10:40:22;8.40;99.90
37158;DHT22;23050;51.776;22.638;2024-03-02T10:42:50;8.40;99.90
37158;DHT22;23050;51.776;22.638;2024-03-02T10:45:19;8.40;99.90
37158;DHT22;23050;51.776;22.638;2024-03-02T10:47:47;8.40;99.90
37158;DHT22;23050;51.776;22.638;2024-03-02T10:50:13;8.60;99.90
37158;DHT22;23050;51.776;22.638;2024-03-02T10:52:39;8.70;99.90
37158;DHT22;23050;51.776;22.638;2024-03-02T10:55:14;8.80;99.90
37158;DHT22;23050;51.776;22.638;2024-03-02T10:58:00;8.80;99.90
37158;DHT22;23050;51.776;22.638;2024-03-02T11:00:33;8.80;99.90
37158;DHT22;23050;51.776;22.638;2024-03-02T11:03:05;8.80;99.90
37158;DHT22;23050;51.776;22.638;2024-03-02T11:05:38;8.90;99.90
37158;DHT22;23050;51.776;22.638;2024-03-02T11:08:08;8.90;99.90
37158;DHT22;23050;51.776;22.638;2024-03-02T11:10:36;8.90;99.90
37158;DHT22;23050;51.776;22.638;2024-03-02T11:13:11;9.00;99.90
37158;DHT22;23050;51.776;22.638;2024-03-02T11:15:41;9.10;99.90
37158;DHT22;23050;51.776;22.638;2024-03-02T11:18:09;9.10;99.90
37158;DHT22;23050;51.776;22.638;2024-03-02T11:20:39;9.00;99.90
37158;DHT22;23050;51.776;22.638;2024-03-02T11:23:06;9.00;99.90
37158;DHT22;23050;51.776;22.638;2024-03-02T11:25:32;9.00;99.90
37158;DHT22;23050;51.776;22.638;2024-03-02T11:28:03;9.00;99.90
37158;DHT22;23050;51.776;22.638;2024-03-02T11:32:58;8.90;99.90
37158;DHT22;23050;51.776;22.638;2024-03-02T11:35:25;8.90;99.90
37158;DHT22;23050;51.776;22.638;2024-03-02T11:37:54;8.80;99.90
37158;DHT22;23050;51.776;22.638;2024-03-02T11:40:24;8.70;99.90
37158;DHT22;23050;51.776;22.638;2024-03-02T11:42:50;8.70;99.90
37158;DHT22;23050;51.776;22.638;2024-03-02T11:45:29;8.60;99.90
37158;DHT22;23050;51.776;22.638;2024-03-02T11:47:57;8.60;99.90
37158;DHT22;23050;51.776;22.638;2024-03-02T11:50:52;8.70;99.90
37158;DHT22;23050;51.776;22.638;2024-03-02T11:53:19;8.80;99.90
37158;DHT22;23050;51.776;22.638;2024-03-02T11:55:45;8.80;99.90
37158;DHT22;23050;51.776;22.638;2024-03-02T11:58:12;8.80;99.90
37158;DHT22;23050;51.776;22.638;2024-03-02T12:00:38;8.80;99.90
37158;DHT22;23050;51.776;22.638;2024-03-02T12:03:05;8.90;99.90
37158;DHT22;23050;51.776;22.638;2024-03-02T12:05:32;8.80;99.90
37158;DHT22;23050;51.776;22.638;2024-03-02T12:08:07;8.80;99.90
37158;DHT22;23050;51.776;22.638;2024-03-02T12:10:34;8.80;99.90
37158;DHT22;23050;51.776;22.638;2024-03-02T12:13:02;8.90;99.90
37158;DHT22;23050;51.776;22.638;2024-03-02T12:15:30;8.90;99.90
37158;DHT22;23050;51.776;22.638;2024-03-02T12:17:57;8.90;99.90
37158;DHT22;23050;51.776;22.638;2024-03-02T12:20:24;8.80;99.90
37158;DHT22;23050;51.776;22.638;2024-03-02T12:22:54;8.70;99.90
37158;DHT22;23050;51.776;22.638;2024-03-02T12:25:21;8.70;99.90
37158;DHT22;23050;51.776;22.638;2024-03-02T12:27:49;8.80;99.90
37158;DHT22;23050;51.776;22.638;2024-03-02T12:30:16;8.80;99.90
37158;DHT22;23050;51.776;22.638;2024-03-02T12:32:43;8.80;99.90
37158;DHT22;23050;51.776;22.638;2024-03-02T12:35:10;8.80;99.90
37158;DHT22;23050;51.776;22.638;2024-03-02T12:37:47;8.80;99.90
37158;DHT22;23050;51.776;22.638;2024-03-02T12:40:14;8.80;99.90
37158;DHT22;23050;51.776;22.638;2024-03-02T12:42:40;8.90;99.90
37158;DHT22;23050;51.776;22.638;2024-03-02T12:45:07;8.80;99.90
37158;DHT22;23050;51.776;22.638;2024-03-02T12:47:37;8.80;99.90
37158;DHT22;23050;51.776;22.638;2024-03-02T12:50:05;8.90;99.90
37158;DHT22;23050;51.776;22.638;2024-03-02T12:52:31;8.90;99.90
37158;DHT22;23050;51.776;22.638;2024-03-02T12:55:00;9.00;99.90
37158;DHT22;23050;51.776;22.638;2024-03-02T12:57:29;8.90;99.90
37158;DHT22;23050;51.776;22.638;2024-03-02T13:00:05;9.00;99.90
37158;DHT22;23050;51.776;22.638;2024-03-02T13:02:40;9.10;99.90
37158;DHT22;23050;51.776;22.638;2024-03-02T13:05:07;9.20;99.90
37158;DHT22;23050;51.776;22.638;2024-03-02T13:07:37;9.30;99.90
37158;DHT22;23050;51.776;22.638;2024-03-02T13:10:03;9.30;99.90
37158;DHT22;23050;51.776;22.638;2024-03-02T13:12:30;9.30;99.90
37158;DHT22;23050;51.776;22.638;2024-03-02T13:14:58;9.20;99.90
37158;DHT22;23050;51.776;22.638;2024-03-02T13:17:24;9.20;99.90
37158;DHT22;23050;51.776;22.638;2024-03-02T13:19:57;9.20;99.90
37158;DHT22;23050;51.776;22.638;2024-03-02T13:22:24;9.10;99.90
37158;DHT22;23050;51.776;22.638;2024-03-02T13:24:51;9.20;99.90
37158;DHT22;23050;51.776;22.638;2024-03-02T13:27:17;9.10;99.90
37158;DHT22;23050;51.776;22.638;2024-03-02T13:29:48;9.20;99.90
37158;DHT22;23050;51.776;22.638;2024-03-02T13:32:15;9.20;99.90
37158;DHT22;23050;51.776;22.638;2024-03-02T13:34:41;9.30;99.90
37158;DHT22;23050;51.776;22.638;2024-03-02T13:37:07;9.30;99.90
37158;DHT22;23050;51.776;22.638;2024-03-02T13:39:33;9.30;99.90
37158;DHT22;23050;51.776;22.638;2024-03-02T13:42:11;9.30;99.90
37158;DHT22;23050;51.776;22.638;2024-03-02T13:44:39;9.40;99.90
37158;DHT22;23050;51.776;22.638;2024-03-02T13:47:06;9.40;99.90
37158;DHT22;23050;51.776;22.638;2024-03-02T13:49:34;9.50;99.90
37158;DHT22;23050;51.776;22.638;2024-03-02T13:52:03;9.50;99.90
37158;DHT22;23050;51.776;22.638;2024-03-02T13:54:30;9.40;99.90
37158;DHT22;23050;51.776;22.638;2024-03-02T13:56:56;9.40;99.90
37158;DHT22;23050;51.776;22.638;2024-03-02T13:59:24;9.40;99.90
37158;DHT22;23050;51.776;22.638;2024-03-02T14:01:50;9.40;99.90
37158;DHT22;23050;51.776;22.638;2024-03-02T14:04:16;9.40;99.90
37158;DHT22;23050;51.776;22.638;2024-03-02T14:06:43;9.40;99.90
37158;DHT22;23050;51.776;22.638;2024-03-02T14:09:09;9.50;99.90
37158;DHT22;23050;51.776;22.638;2024-03-02T14:11:34;9.50;99.90
37158;DHT22;23050;51.776;22.638;2024-03-02T14:14:01;9.50;99.90
37158;DHT22;23050;51.776;22.638;2024-03-02T14:16:27;9.40;99.90
37158;DHT22;23050;51.776;22.638;2024-03-02T14:18:53;9.40;99.90
37158;DHT22;23050;51.776;22.638;2024-03-02T14:21:19;9.40;99.90
37158;DHT22;23050;51.776;22.638;2024-03-02T14:23:44;9.40;99.90
37158;DHT22;23050;51.776;22.638;2024-03-02T14:26:10;9.40;99.90
37158;DHT22;23050;51.776;22.638;2024-03-02T14:28:36;9.30;99.90
37158;DHT22;23050;51.776;22.638;2024-03-02T14:31:01;9.30;99.90
37158;DHT22;23050;51.776;22.638;2024-03-02T14:33:28;9.30;99.90
37158;DHT22;23050;51.776;22.638;2024-03-02T14:35:53;9.20;99.90
37158;DHT22;23050;51.776;22.638;2024-03-02T14:38:19;9.20;99.90
37158;DHT22;23050;51.776;22.638;2024-03-02T14:40:45;9.20;99.90
37158;DHT22;23050;51.776;22.638;2024-03-02T14:43:11;9.20;99.90
37158;DHT22;23050;51.776;22.638;2024-03-02T14:45:36;9.10;99.90
37158;DHT22;23050;51.776;22.638;2024-03-02T14:48:03;9.10;99.90
37158;DHT22;23050;51.776;22.638;2024-03-02T14:50:29;9.10;99.90
37158;DHT22;23050;51.776;22.638;2024-03-02T14:52:55;9.10;99.90
37158;DHT22;23050;51.776;22.638;2024-03-02T14:55:23;9.00;99.90
37158;DHT22;23050;51.776;22.638;2024-03-02T14:57:49;8.90;99.90
37158;DHT22;23050;51.776;22.638;2024-03-02T15:00:15;8.90;99.90
37158;DHT22;23050;51.776;22.638;2024-03-02T15:02:41;8.90;99.90
37158;DHT22;23050;51.776;22.638;2024-03-02T15:05:07;8.80;99.90
37158;DHT22;23050;51.776;22.638;2024-03-02T15:07:33;8.80;99.90
37158;DHT22;23050;51.776;22.638;2024-03-02T15:09:58;8.80;99.90
37158;DHT22;23050;51.776;22.638;2024-03-02T15:12:24;8.70;99.90
37158;DHT22;23050;51.776;22.638;2024-03-02T15:14:50;8.70;99.90
37158;DHT22;23050;51.776;22.638;2024-03-02T15:17:16;8.70;99.90
37158;DHT22;23050;51.776;22.638;2024-03-02T15:19:45;8.60;99.90
37158;DHT22;23050;51.776;22.638;2024-03-02T15:22:12;8.60;99.90
37158;DHT22;23050;51.776;22.638;2024-03-02T15:24:38;8.60;99.90
37158;DHT22;23050;51.776;22.638;2024-03-02T15:27:05;8.50;99.90
37158;DHT22;23050;51.776;22.638;2024-03-02T15:29:31;8.50;99.90
37158;DHT22;23050;51.776;22.638;2024-03-02T15:31:57;8.50;99.90